Mount Sterling, KY

2:35 AM EDT on October 17, 2017 (GMT -0400)
Mount Sterling-Montgomery County

Weather History for KIOB - February, 2014

Change the Weather History Date:

Friday, February 21, 2014

  Actual Average Record
Temperature  
Mean Temperature 45 °F -  
Max Temperature 55 °F 50 °F 71 °F (2017)
Min Temperature 35 °F 27 °F 17 °F (2013)
Degree Days  
Heating Degree Days 20    
Moisture  
Dew Point 30 °F    
Average Humidity 66    
Maximum Humidity 100    
Minimum Humidity 34    
Precipitation  
Precipitation 0.66 in - - ()
Sea Level Pressure  
Sea Level Pressure 29.91 in    
Wind  
Wind Speed 14 mph (West)    
Max Wind Speed 26 mph    
Max Gust Speed 33 mph    
Visibility 10 miles    
Events Rain    
Averages and records for this station are not official NWS values.
T = Trace of Precipitation, MM = Missing Value Source: NWS Daily Summary

Daily Weather History Graph

Daily Weather History Graph

Search for Another Location

Airport or City:

Trip Planner

Search our weather history database for the weather conditions in past years. The results will help you decide how hot, cold, wet, or windy it might be!

Date:

Astronomy

Feb. 21, 2014 Rise Set
Actual Time 7:18 AM EST 6:21 PM EST
Civil Twilight 6:51 AM EST 6:47 PM EST
Nautical Twilight 6:21 AM EST 7:18 PM EST
Astronomical Twilight 5:50 AM EST 7:48 PM EST
Moon 12:07 AM EST (2/21) 10:48 AM EST (2/21)
Length of Visible Light 11h 55m
Length of Day
11h 02m
Waning Gibbous, 61% of the Moon is Illuminated
Feb 21
Waning Gibbous
Feb 22
Last Quarter
Mar 1
New
Mar 8
First Quarter
Mar 16
Full

Hourly Weather History & Observations

Time (EST) Temp. Windchill Dew Point Humidity Pressure Visibility Wind Dir Wind Speed Gust Speed Precip Events Conditions
12:15 AM 55.4 °F - 53.6 °F 94% 29.64 in 5.0 mi SW 17.3 mph 27.6 mph 0.07 in Rain Rain
12:35 AM 53.6 °F - 53.6 °F 100% 29.65 in 7.0 mi SW 12.7 mph 26.5 mph 0.14 in Rain Rain
12:55 AM 53.6 °F - 53.6 °F 100% 29.66 in 7.0 mi SW 15.0 mph 20.7 mph 0.21 in Rain Rain
1:15 AM 51.8 °F - 50.0 °F 94% 29.68 in 3.0 mi WNW 15.0 mph 28.8 mph 0.11 in Rain Heavy Rain
1:35 AM 48.2 °F - 46.4 °F 93% 29.71 in 5.0 mi West 13.8 mph 23.0 mph 0.21 in Rain Rain
1:55 AM 48.2 °F - 46.4 °F 93% 29.72 in 10.0 mi WNW 10.4 mph 20.7 mph 0.26 in Rain Light Rain
2:15 AM 46.4 °F 40.4 °F 44.6 °F 93% 29.74 in 10.0 mi WNW 13.8 mph 29.9 mph N/A Rain Light Rain
2:35 AM 44.6 °F 37.2 °F 41.0 °F 87% 29.76 in 10.0 mi NW 17.3 mph 25.3 mph 0.02 in Rain Light Rain
2:55 AM 42.8 °F 34.3 °F 39.2 °F 87% 29.78 in 5.0 mi NW 19.6 mph 31.1 mph 0.09 in Rain Rain
3:15 AM 41.0 °F 34.7 °F 37.4 °F 87% 29.76 in 10.0 mi NW 10.4 mph 19.6 mph 0.01 in Rain Light Rain
3:35 AM 41.0 °F 35.8 °F 37.4 °F 87% 29.78 in 10.0 mi WNW 8.1 mph - 0.01 in   Overcast
3:55 AM 41.0 °F 32.8 °F 37.4 °F 87% 29.81 in 10.0 mi WNW 16.1 mph 23.0 mph 0.02 in Rain Light Rain
4:15 AM 37.4 °F 28.2 °F 35.6 °F 93% 29.85 in 7.0 mi West 16.1 mph 19.6 mph 0.02 in Rain Light Rain
4:35 AM 37.4 °F 30.8 °F 33.8 °F 87% 29.83 in 7.0 mi West 9.2 mph 24.2 mph 0.04 in Rain Rain
4:55 AM 37.4 °F 30.3 °F 33.8 °F 87% 29.85 in 10.0 mi West 10.4 mph 19.6 mph 0.06 in Rain Light Rain
5:15 AM 37.4 °F 31.4 °F 33.8 °F 87% 29.85 in 7.0 mi SW 8.1 mph 17.3 mph 0.02 in Rain Light Rain
5:35 AM 37.4 °F 30.8 °F 35.6 °F 93% 29.85 in 10.0 mi SW 9.2 mph - 0.02 in   Overcast
5:55 AM 35.6 °F 28.0 °F 35.6 °F 100% 29.84 in 10.0 mi SW 10.4 mph - 0.02 in   Overcast
6:15 AM 35.6 °F 29.2 °F 35.6 °F 100% 29.85 in 10.0 mi WSW 8.1 mph - N/A   Overcast
6:35 AM 35.6 °F 28.0 °F 35.6 °F 100% 29.85 in 10.0 mi SW 10.4 mph - N/A   Overcast
6:55 AM 35.6 °F 29.2 °F 35.6 °F 100% 29.86 in 10.0 mi WSW 8.1 mph - N/A   Overcast
7:15 AM 35.6 °F 28.6 °F 35.6 °F 100% 29.87 in 10.0 mi WSW 9.2 mph - N/A   Overcast
7:35 AM 35.6 °F 28.0 °F 35.6 °F 100% 29.88 in 10.0 mi WSW 10.4 mph 18.4 mph N/A   Scattered Clouds
7:55 AM 35.6 °F 28.0 °F 35.6 °F 100% 29.88 in 10.0 mi WSW 10.4 mph 17.3 mph N/A   Clear
8:15 AM 35.6 °F 28.0 °F 35.6 °F 100% 29.89 in 10.0 mi SW 10.4 mph 16.1 mph N/A   Clear
8:35 AM 37.4 °F 31.4 °F 35.6 °F 93% 29.89 in 10.0 mi SW 8.1 mph 16.1 mph N/A   Clear
8:55 AM 39.2 °F 31.6 °F 35.6 °F 87% 29.90 in 10.0 mi SW 12.7 mph 18.4 mph N/A   Clear
9:15 AM 41.0 °F 32.5 °F 33.8 °F 76% 29.90 in 10.0 mi WSW 17.3 mph 23.0 mph N/A   Clear
9:35 AM 41.0 °F 31.9 °F 33.8 °F 76% 29.91 in 10.0 mi West 19.6 mph 28.8 mph N/A   Clear
9:55 AM 41.0 °F 32.5 °F 33.8 °F 76% 29.91 in 10.0 mi WSW 17.3 mph 25.3 mph N/A   Clear
10:15 AM 42.8 °F 34.5 °F 33.8 °F 70% 29.91 in 10.0 mi West 18.4 mph 28.8 mph N/A   Scattered Clouds
10:35 AM 42.8 °F 34.5 °F 32.0 °F 66% 29.91 in 10.0 mi West 18.4 mph 25.3 mph N/A   Scattered Clouds
10:55 AM 42.8 °F 33.1 °F 32.0 °F 66% 29.91 in 10.0 mi West 25.3 mph 31.1 mph N/A   Scattered Clouds
11:15 AM 44.6 °F 36.1 °F 30.2 °F 57% 29.93 in 10.0 mi West 21.9 mph 33.4 mph N/A   Mostly Cloudy
11:35 AM 44.6 °F 35.3 °F 30.2 °F 57% 29.93 in 10.0 mi West 26.5 mph 33.4 mph N/A   Overcast
11:55 AM 44.6 °F 36.6 °F 30.2 °F 57% 29.93 in 10.0 mi West 19.6 mph 25.3 mph N/A   Mostly Cloudy
12:15 PM 44.6 °F 37.8 °F 30.2 °F 57% 29.94 in 10.0 mi West 15.0 mph 29.9 mph N/A   Mostly Cloudy
12:35 PM 44.6 °F 36.6 °F 30.2 °F 57% 29.93 in 10.0 mi West 19.6 mph 28.8 mph N/A   Mostly Cloudy
12:55 PM 46.4 °F 39.8 °F 30.2 °F 53% 29.93 in 10.0 mi West 16.1 mph 26.5 mph N/A   Scattered Clouds
1:15 PM 46.4 °F 39.2 °F 30.2 °F 53% 29.92 in 10.0 mi West 18.4 mph 25.3 mph N/A   Scattered Clouds
1:35 PM 46.4 °F 39.2 °F 28.4 °F 50% 29.92 in 10.0 mi West 18.4 mph 29.9 mph N/A   Clear
1:55 PM 46.4 °F 39.0 °F 28.4 °F 50% 29.93 in 10.0 mi West 19.6 mph 27.6 mph N/A   Clear
2:15 PM 46.4 °F 40.1 °F 28.4 °F 50% 29.93 in 10.0 mi West 15.0 mph 31.1 mph N/A   Scattered Clouds
2:35 PM 48.2 °F - 28.4 °F 46% 29.93 in 10.0 mi West 15.0 mph 23.0 mph N/A   Clear
2:55 PM 48.2 °F - 26.6 °F 43% 29.93 in 10.0 mi West 16.1 mph 26.5 mph N/A   Clear
3:15 PM 48.2 °F - 26.6 °F 43% 29.94 in 10.0 mi West 15.0 mph 28.8 mph N/A   Clear
3:35 PM 48.2 °F - 26.6 °F 43% 29.95 in 10.0 mi West 20.7 mph 29.9 mph N/A   Clear
3:55 PM 50.0 °F - 26.6 °F 40% 29.95 in 10.0 mi West 18.4 mph 26.5 mph N/A   Clear
4:15 PM 50.0 °F - 23.0 °F 35% 29.96 in 10.0 mi West 11.5 mph 25.3 mph N/A   Clear
4:35 PM 48.2 °F - 23.0 °F 37% 29.97 in 10.0 mi West 10.4 mph 26.5 mph N/A   Clear
4:55 PM 48.2 °F - 23.0 °F 37% 29.98 in 10.0 mi West 15.0 mph 23.0 mph N/A   Clear
5:15 PM 48.2 °F - 21.2 °F 34% 29.98 in 10.0 mi West 15.0 mph 18.4 mph N/A   Clear
5:35 PM 46.4 °F 40.1 °F 21.2 °F 37% 29.99 in 10.0 mi West 15.0 mph 18.4 mph N/A   Clear
5:55 PM 46.4 °F 40.7 °F 21.2 °F 37% 30.00 in 10.0 mi West 12.7 mph 19.6 mph N/A   Clear
6:15 PM 44.6 °F 39.2 °F 19.4 °F 37% 30.00 in 10.0 mi West 10.4 mph - N/A   Clear
6:35 PM 42.8 °F 38.0 °F 19.4 °F 39% 30.01 in 10.0 mi West 8.1 mph - N/A   Clear
6:55 PM 42.8 °F 37.5 °F 19.4 °F 39% 30.01 in 10.0 mi West 9.2 mph - N/A   Clear
7:15 PM 42.8 °F 37.5 °F 19.4 °F 39% 30.02 in 10.0 mi West 9.2 mph - N/A   Clear
7:35 PM 41.0 °F 36.4 °F 17.6 °F 39% 30.03 in 10.0 mi West 6.9 mph - N/A   Clear
7:55 PM 41.0 °F 36.4 °F 17.6 °F 39% 30.03 in 10.0 mi West 6.9 mph - N/A   Clear
8:15 PM 41.0 °F 35.8 °F 19.4 °F 42% 30.03 in 10.0 mi West 8.1 mph - N/A   Clear
8:35 PM 39.2 °F 33.6 °F 17.6 °F 42% 30.04 in 10.0 mi West 8.1 mph - N/A   Clear
8:55 PM 41.0 °F 36.4 °F 17.6 °F 39% 30.04 in 10.0 mi WSW 6.9 mph - N/A   Clear
9:15 PM 39.2 °F 34.2 °F 17.6 °F 42% 30.04 in 10.0 mi WSW 6.9 mph - N/A   Clear
9:35 PM 37.4 °F 32.8 °F 19.4 °F 48% 30.04 in 10.0 mi WSW 5.8 mph - N/A   Clear
9:55 PM 37.4 °F 32.8 °F 17.6 °F 45% 30.05 in 10.0 mi SW 5.8 mph - N/A   Clear
10:15 PM 35.6 °F 29.9 °F 19.4 °F 52% 30.05 in 10.0 mi SW 6.9 mph - N/A   Clear
10:35 PM 37.4 °F 32.1 °F 19.4 °F 48% 30.06 in 10.0 mi SW 6.9 mph - N/A   Clear
10:55 PM 37.4 °F 30.8 °F 19.4 °F 48% 30.05 in 10.0 mi SW 9.2 mph - N/A   Clear
11:15 PM 37.4 °F 31.4 °F 19.4 °F 48% 30.05 in 10.0 mi SW 8.1 mph - N/A   Clear
11:35 PM 37.4 °F 31.4 °F 19.4 °F 48% 30.05 in 10.0 mi SW 8.1 mph - N/A   Clear
11:55 PM 35.6 °F 29.9 °F 19.4 °F 52% 30.05 in 10.0 mi WSW 6.9 mph - N/A   Clear